createdAt,value
2022-12-18T00:00:10.260Z,34.66
2022-12-18T00:00:22.112Z,36.08
2022-12-18T00:00:34.027Z,36.85
2022-12-18T00:00:47.907Z,35.28
2022-12-18T00:00:59.837Z,37.20
2022-12-18T00:01:26.566Z,37.75
2022-12-18T00:01:38.644Z,39.58
2022-12-18T00:01:50.675Z,40.10
2022-12-18T00:02:02.636Z,36.78
2022-12-18T00:02:14.539Z,35.45
2022-12-18T00:02:26.347Z,35.53
2022-12-18T00:02:38.242Z,33.42
2022-12-18T00:02:50.212Z,37.55
2022-12-18T00:03:02.171Z,40.15
2022-12-18T00:03:15.538Z,38.60
2022-12-18T00:03:27.668Z,37.08
2022-12-18T00:03:39.753Z,39.47
2022-12-18T00:03:52.979Z,38.85
2022-12-18T00:04:06.536Z,37.42
2022-12-18T00:04:24.567Z,36.40
2022-12-18T00:04:36.598Z,37.45
2022-12-18T00:04:48.392Z,36.10
2022-12-18T00:05:01.417Z,37.05
2022-12-18T00:05:13.162Z,40.15
2022-12-18T00:05:25.189Z,40.75
2022-12-18T00:05:37.524Z,39.10
2022-12-18T00:05:51.154Z,36.90
2022-12-18T00:06:03.591Z,34.85
2022-12-18T00:06:16.712Z,36.33
2022-12-18T00:06:30.068Z,38.38
2022-12-18T00:06:41.968Z,38.03
2022-12-18T00:06:54.074Z,36.47
2022-12-18T00:07:05.988Z,38.00
2022-12-18T00:07:17.825Z,36.95
2022-12-18T00:07:29.735Z,36.75
2022-12-18T00:07:41.529Z,35.88
2022-12-18T00:07:53.308Z,34.85
2022-12-18T00:08:09.348Z,34.78
2022-12-18T00:08:21.499Z,36.42
2022-12-18T00:08:33.310Z,35.45
2022-12-18T00:08:45.422Z,32.00
2022-12-18T00:08:59.012Z,34.08
2022-12-18T00:09:10.980Z,36.05
2022-12-18T00:09:24.623Z,34.88
2022-12-18T00:09:39.805Z,36.75
2022-12-18T00:09:52.248Z,40.58
2022-12-18T00:10:06.667Z,40.88
2022-12-18T00:10:20.228Z,37.85
2022-12-18T00:10:32.001Z,35.47
2022-12-18T00:10:44.027Z,36.83
2022-12-18T00:10:55.887Z,36.25
2022-12-18T00:11:18.794Z,36.70
2022-12-18T00:11:31.216Z,35.85
2022-12-18T00:11:43.019Z,35.22
2022-12-18T00:11:54.765Z,35.22
2022-12-18T00:12:29.902Z,34.30
2022-12-18T00:12:42.123Z,37.35
2022-12-18T00:12:54.697Z,38.40
2022-12-18T00:13:09.871Z,37.80
2022-12-18T00:13:22.630Z,37.78
2022-12-18T00:13:35.126Z,37.08
2022-12-18T00:13:47.378Z,38.88
2022-12-18T00:14:00.328Z,44.75
2022-12-18T00:14:12.805Z,41.28
2022-12-18T00:14:24.981Z,38.97
2022-12-18T00:14:37.697Z,37.58
2022-12-18T00:14:53.432Z,37.45
2022-12-18T00:15:06.680Z,37.78
2022-12-18T00:15:18.588Z,36.03
2022-12-18T00:15:30.462Z,35.00
2022-12-18T00:15:42.266Z,37.47
2022-12-18T00:15:54.200Z,41.45
2022-12-18T00:16:14.775Z,41.67
2022-12-18T00:16:27.983Z,42.40
2022-12-18T00:16:40.189Z,40.20
2022-12-18T00:16:52.154Z,38.17
2022-12-18T00:17:04.052Z,41.15
2022-12-18T00:17:15.775Z,41.83
2022-12-18T00:17:27.576Z,40.95
2022-12-18T00:17:39.469Z,37.50
2022-12-18T00:17:51.270Z,36.72
2022-12-18T00:18:03.222Z,36.15
2022-12-18T00:18:18.925Z,36.42
2022-12-18T00:18:33.340Z,35.90
2022-12-18T00:18:45.141Z,37.05
2022-12-18T00:18:58.007Z,35.63
2022-12-18T00:19:10.244Z,34.40
2022-12-18T00:19:22.137Z,37.03
2022-12-18T00:19:34.003Z,36.88
2022-12-18T00:19:45.742Z,36.95
2022-12-18T00:19:57.962Z,38.25
2022-12-18T00:20:10.396Z,39.63
2022-12-18T00:20:26.449Z,38.03
2022-12-18T00:20:41.260Z,36.17
2022-12-18T00:20:53.653Z,37.22
2022-12-18T00:21:07.537Z,39.08
2022-12-18T00:21:19.988Z,39.00
2022-12-18T00:21:32.894Z,38.70
2022-12-18T00:21:45.039Z,39.63
2022-12-18T00:21:56.765Z,38.88
2022-12-18T00:22:08.695Z,39.40
2022-12-18T00:22:20.423Z,37.15
2022-12-18T00:22:32.174Z,35.45
2022-12-18T00:22:43.907Z,37.17
2022-12-18T00:22:55.887Z,39.88
2022-12-18T00:23:08.045Z,41.97
2022-12-18T00:23:19.827Z,39.35
2022-12-18T00:23:31.979Z,36.33
2022-12-18T00:23:44.635Z,33.17
2022-12-18T00:23:56.396Z,34.08
2022-12-18T00:24:08.781Z,32.53
2022-12-18T00:24:20.763Z,31.75
2022-12-18T00:24:33.114Z,30.75
2022-12-18T00:24:44.858Z,31.45
2022-12-18T00:24:56.611Z,33.38
2022-12-18T00:25:08.841Z,35.38
2022-12-18T00:25:20.666Z,35.75
2022-12-18T00:25:36.016Z,36.03
2022-12-18T00:25:47.773Z,36.28
2022-12-18T00:26:03.655Z,34.88
2022-12-18T00:26:21.057Z,37.35
2022-12-18T00:26:34.005Z,39.90
2022-12-18T00:26:45.803Z,41.47
2022-12-18T00:26:57.596Z,38.90
2022-12-18T00:27:09.458Z,36.13
2022-12-18T00:27:21.354Z,35.60
2022-12-18T00:27:33.232Z,34.60
2022-12-18T00:27:44.954Z,37.05
2022-12-18T00:27:56.845Z,35.10
2022-12-18T00:28:08.671Z,36.03
2022-12-18T00:28:20.485Z,35.75
2022-12-18T00:28:32.553Z,37.83
2022-12-18T00:28:45.021Z,37.25
2022-12-18T00:28:59.946Z,37.33
2022-12-18T00:29:14.720Z,35.38
2022-12-18T00:29:26.620Z,38.78
2022-12-18T00:29:38.452Z,41.78
2022-12-18T00:29:50.252Z,40.42
2022-12-18T00:30:02.052Z,39.15
2022-12-18T00:30:14.175Z,39.83
2022-12-18T00:30:26.079Z,36.96
2022-12-18T00:30:38.079Z,35.88
2022-12-18T00:30:52.492Z,33.94
2022-12-18T00:31:08.496Z,34.90
2022-12-18T00:31:23.090Z,36.33
2022-12-18T00:31:35.262Z,35.42
2022-12-18T00:31:47.646Z,34.53
2022-12-18T00:31:59.481Z,35.72
2022-12-18T00:32:11.305Z,35.65
2022-12-18T00:32:23.196Z,35.80
2022-12-18T00:32:34.963Z,37.03
2022-12-18T00:32:46.948Z,36.10
2022-12-18T00:32:58.957Z,37.63
2022-12-18T00:33:10.910Z,39.08
2022-12-18T00:33:23.228Z,36.88
2022-12-18T00:33:35.571Z,37.05
2022-12-18T00:33:47.620Z,40.90
2022-12-18T00:34:02.066Z,40.40
2022-12-18T00:34:14.097Z,37.75
2022-12-18T00:34:26.076Z,38.63
2022-12-18T00:34:38.052Z,40.38
2022-12-18T00:34:49.965Z,40.13
2022-12-18T00:35:01.853Z,39.56
2022-12-18T00:35:13.566Z,40.58
2022-12-18T00:35:25.461Z,40.25
2022-12-18T00:35:37.242Z,42.70
2022-12-18T00:35:49.024Z,41.90
2022-12-18T00:36:05.211Z,38.72
2022-12-18T00:36:20.081Z,35.33
2022-12-18T00:36:34.721Z,34.55
2022-12-18T00:36:48.556Z,34.80
2022-12-18T00:37:00.371Z,35.72
2022-12-18T00:37:15.618Z,34.08
2022-12-18T00:37:31.767Z,34.83
2022-12-18T00:37:44.026Z,37.33
2022-12-18T00:37:56.086Z,36.13
2022-12-18T00:38:07.897Z,36.17
2022-12-18T00:38:19.852Z,35.45
2022-12-18T00:38:32.075Z,34.17
2022-12-18T00:38:43.811Z,33.08
2022-12-18T00:38:56.349Z,33.72
2022-12-18T00:39:08.318Z,33.38
2022-12-18T00:39:20.172Z,33.42
2022-12-18T00:39:32.449Z,35.60
2022-12-18T00:39:44.319Z,36.28
2022-12-18T00:39:56.073Z,37.83
2022-12-18T00:40:08.931Z,35.95
2022-12-18T00:40:20.746Z,36.42
2022-12-18T00:40:32.905Z,37.47
2022-12-18T00:40:45.033Z,37.10
2022-12-18T00:40:56.839Z,34.17
2022-12-18T00:41:09.055Z,33.08
2022-12-18T00:41:39.534Z,36.10
2022-12-18T00:42:10.964Z,38.28
2022-12-18T00:42:42.331Z,36.30
2022-12-18T00:42:56.980Z,38.05
2022-12-18T00:43:08.845Z,39.28
2022-12-18T00:43:20.616Z,38.17
2022-12-18T00:43:32.424Z,35.13
2022-12-18T00:43:44.309Z,36.03
2022-12-18T00:43:56.181Z,37.53
2022-12-18T00:44:08.950Z,39.78
2022-12-18T00:44:20.915Z,38.58
2022-12-18T00:44:32.780Z,35.30
2022-12-18T00:44:44.678Z,34.75
2022-12-18T00:44:56.425Z,35.05
2022-12-18T00:45:12.644Z,32.92
2022-12-18T00:45:30.429Z,33.50
2022-12-18T00:45:42.508Z,35.15
2022-12-18T00:45:56.853Z,35.45
2022-12-18T00:46:08.802Z,37.35
2022-12-18T00:46:21.465Z,38.45
2022-12-18T00:46:33.332Z,36.53
2022-12-18T00:46:45.581Z,37.13
2022-12-18T00:46:57.387Z,36.53
2022-12-18T00:47:09.248Z,35.92
2022-12-18T00:47:21.381Z,35.92
2022-12-18T00:47:33.170Z,34.25
2022-12-18T00:47:44.962Z,34.08
2022-12-18T00:47:57.109Z,34.22
2022-12-18T00:48:09.018Z,36.58
2022-12-18T00:48:20.756Z,35.83
2022-12-18T00:48:32.973Z,36.15
2022-12-18T00:48:44.712Z,35.13
2022-12-18T00:48:57.154Z,37.08
2022-12-18T00:49:08.992Z,38.67
2022-12-18T00:49:21.154Z,41.08
2022-12-18T00:49:33.013Z,35.30
2022-12-18T00:49:44.794Z,33.83
2022-12-18T00:49:56.744Z,36.10
2022-12-18T00:50:09.534Z,36.58
2022-12-18T00:50:21.957Z,35.95
2022-12-18T00:50:33.883Z,32.95
2022-12-18T00:50:45.751Z,35.86
2022-12-18T00:50:57.608Z,37.80
2022-12-18T00:51:09.802Z,38.53
2022-12-18T00:51:21.770Z,38.33
2022-12-18T00:51:33.571Z,36.00
2022-12-18T00:51:45.559Z,36.70
2022-12-18T00:51:57.429Z,36.85
2022-12-18T00:52:09.363Z,35.42
2022-12-18T00:52:21.463Z,34.35
2022-12-18T00:52:33.356Z,37.65
2022-12-18T00:52:45.195Z,37.66
2022-12-18T00:52:57.164Z,36.13
2022-12-18T00:53:09.431Z,32.78
2022-12-18T00:53:21.563Z,33.38
2022-12-18T00:53:33.368Z,36.17
2022-12-18T00:53:45.369Z,40.38
2022-12-18T00:53:57.287Z,43.85
2022-12-18T00:54:09.174Z,39.53
2022-12-18T00:54:21.076Z,38.75
2022-12-18T00:54:32.828Z,36.25
2022-12-18T00:54:44.618Z,39.32
2022-12-18T00:54:56.571Z,38.28
2022-12-18T00:55:09.089Z,39.03
2022-12-18T00:55:21.061Z,37.60
2022-12-18T00:55:33.113Z,35.97
2022-12-18T00:55:45.111Z,37.13
2022-12-18T00:55:57.648Z,37.78
2022-12-18T00:56:09.963Z,35.47
2022-12-18T00:56:21.676Z,34.60
2022-12-18T00:56:33.472Z,34.97
2022-12-18T00:56:48.618Z,37.17
2022-12-18T00:57:00.854Z,36.55
2022-12-18T00:57:12.756Z,38.40
2022-12-18T00:57:24.565Z,39.72
2022-12-18T00:57:36.366Z,40.03
2022-12-18T00:57:48.350Z,40.63
2022-12-18T00:58:00.162Z,42.75
2022-12-18T00:58:12.395Z,41.97
2022-12-18T00:58:24.340Z,36.70
2022-12-18T00:58:38.090Z,35.10
2022-12-18T00:58:50.039Z,34.42
2022-12-18T00:59:02.147Z,38.08
2022-12-18T00:59:14.077Z,37.28
2022-12-18T00:59:25.898Z,36.85
2022-12-18T00:59:37.693Z,37.90
2022-12-18T00:59:49.513Z,37.17
2022-12-18T01:00:01.355Z,35.63
2022-12-18T01:00:15.857Z,35.35
2022-12-18T01:00:27.748Z,38.08
2022-12-18T01:00:39.776Z,40.13
2022-12-18T01:00:51.814Z,41.70
2022-12-18T01:01:06.435Z,38.80
2022-12-18T01:01:18.593Z,39.97
2022-12-18T01:01:30.573Z,40.17
2022-12-18T01:01:42.598Z,38.10
2022-12-18T01:01:54.634Z,40.42
2022-12-18T01:02:06.723Z,39.47
2022-12-18T01:02:18.898Z,38.70
2022-12-18T01:02:31.068Z,40.22
2022-12-18T01:02:43.734Z,39.47
2022-12-18T01:02:55.699Z,37.70
2022-12-18T01:03:07.759Z,36.92
2022-12-18T01:03:20.139Z,36.88
2022-12-18T01:03:32.018Z,38.58
2022-12-18T01:03:46.025Z,39.35
2022-12-18T01:03:57.919Z,39.67
2022-12-18T01:04:09.737Z,37.20
2022-12-18T01:04:21.759Z,37.72
2022-12-18T01:04:34.372Z,40.00
2022-12-18T01:04:46.240Z,40.90
2022-12-18T01:04:58.148Z,41.42
2022-12-18T01:05:11.661Z,40.10
2022-12-18T01:05:23.925Z,38.58
2022-12-18T01:05:39.602Z,37.30
2022-12-18T01:05:51.311Z,37.72
2022-12-18T01:06:10.645Z,37.72
2022-12-18T01:06:22.536Z,37.70
2022-12-18T01:06:34.354Z,38.28
2022-12-18T01:06:46.158Z,37.63
2022-12-18T01:06:57.917Z,39.20
2022-12-18T01:07:09.681Z,38.80
2022-12-18T01:07:21.573Z,37.38
2022-12-18T01:07:33.350Z,36.97
2022-12-18T01:07:45.314Z,36.20
2022-12-18T01:07:57.597Z,36.42
2022-12-18T01:08:09.474Z,38.08
2022-12-18T01:08:21.680Z,39.92
2022-12-18T01:08:33.421Z,40.47
2022-12-18T01:08:45.470Z,40.17
2022-12-18T01:08:57.341Z,40.85
2022-12-18T01:09:09.687Z,40.15
2022-12-18T01:09:21.520Z,40.72
2022-12-18T01:09:33.480Z,39.63
2022-12-18T01:09:45.630Z,39.78
2022-12-18T01:09:57.501Z,41.50
2022-12-18T01:10:11.572Z,40.38
2022-12-18T01:10:23.456Z,41.70
2022-12-18T01:10:35.325Z,44.53
2022-12-18T01:10:47.127Z,43.55
2022-12-18T01:10:58.940Z,39.00
2022-12-18T01:11:18.091Z,38.75
2022-12-18T01:11:29.918Z,39.58
2022-12-18T01:11:41.694Z,42.03
2022-12-18T01:11:53.699Z,43.25
2022-12-18T01:12:06.221Z,43.03
2022-12-18T01:12:18.099Z,41.40
2022-12-18T01:12:29.841Z,39.42
2022-12-18T01:12:41.717Z,40.25
2022-12-18T01:12:53.653Z,44.53
2022-12-18T01:13:05.427Z,45.65
2022-12-18T01:13:17.311Z,42.17
2022-12-18T01:13:29.175Z,42.22
2022-12-18T01:13:41.483Z,39.80
2022-12-18T01:13:54.687Z,36.20
2022-12-18T01:14:06.510Z,38.58
2022-12-18T01:14:18.301Z,41.20
2022-12-18T01:14:30.034Z,38.92
2022-12-18T01:14:41.850Z,40.33
2022-12-18T01:14:53.764Z,41.10
2022-12-18T01:15:06.856Z,41.28
2022-12-18T01:15:18.903Z,42.00
2022-12-18T01:15:31.152Z,41.17
2022-12-18T01:15:50.382Z,41.17
2022-12-18T01:16:02.191Z,42.25
2022-12-18T01:16:15.019Z,40.65
2022-12-18T01:16:26.974Z,40.80
2022-12-18T01:16:39.069Z,40.03
2022-12-18T01:16:50.940Z,41.65
2022-12-18T01:17:04.668Z,42.70
2022-12-18T01:17:16.501Z,42.90
2022-12-18T01:17:28.331Z,39.47
2022-12-18T01:17:40.137Z,41.38
2022-12-18T01:17:54.000Z,42.53
2022-12-18T01:18:05.800Z,44.22
2022-12-18T01:18:17.740Z,44.65
2022-12-18T01:18:29.524Z,43.88
2022-12-18T01:18:41.357Z,43.17
2022-12-18T01:18:55.208Z,42.15
2022-12-18T01:19:07.101Z,42.03
2022-12-18T01:19:19.087Z,40.35
2022-12-18T01:19:31.061Z,39.13
2022-12-18T01:19:43.034Z,38.72
2022-12-18T01:19:55.031Z,43.88
2022-12-18T01:20:07.834Z,44.25
2022-12-18T01:20:19.732Z,44.50
2022-12-18T01:20:31.592Z,42.03
2022-12-18T01:20:43.698Z,43.60
2022-12-18T01:20:55.613Z,44.05
2022-12-18T01:21:15.692Z,43.38
2022-12-18T01:21:27.562Z,41.92
2022-12-18T01:21:39.358Z,42.47
2022-12-18T01:21:51.156Z,43.25
2022-12-18T01:22:02.980Z,41.55
2022-12-18T01:22:14.729Z,43.10
2022-12-18T01:22:26.612Z,42.95
2022-12-18T01:22:38.604Z,44.88
2022-12-18T01:22:50.391Z,47.75
2022-12-18T01:23:02.128Z,46.63
2022-12-18T01:23:13.918Z,43.47
2022-12-18T01:23:25.812Z,42.17
2022-12-18T01:23:38.075Z,41.97
2022-12-18T01:23:54.343Z,42.65
2022-12-18T01:24:07.286Z,40.92
2022-12-18T01:24:19.022Z,42.97
2022-12-18T01:24:30.907Z,43.17
2022-12-18T01:24:42.680Z,40.85
2022-12-18T01:24:54.808Z,42.97
2022-12-18T01:25:07.048Z,43.80
2022-12-18T01:25:18.929Z,42.38
2022-12-18T01:25:30.863Z,41.83
2022-12-18T01:25:42.592Z,43.55
2022-12-18T01:25:54.424Z,45.13
2022-12-18T01:26:11.628Z,45.97
2022-12-18T01:26:23.822Z,42.47
2022-12-18T01:26:35.738Z,41.42
2022-12-18T01:26:47.634Z,41.13
2022-12-18T01:27:00.220Z,42.13
2022-12-18T01:27:11.988Z,40.28
2022-12-18T01:27:23.949Z,42.45
2022-12-18T01:27:35.851Z,42.85
2022-12-18T01:27:47.646Z,40.70
2022-12-18T01:27:59.548Z,39.60
2022-12-18T01:28:11.384Z,41.83
2022-12-18T01:28:23.251Z,42.17
2022-12-18T01:28:35.047Z,42.83
2022-12-18T01:28:46.855Z,42.55
2022-12-18T01:28:59.048Z,41.72
2022-12-18T01:29:11.137Z,42.38
2022-12-18T01:29:23.094Z,46.03
2022-12-18T01:29:35.037Z,47.15
2022-12-18T01:29:46.876Z,47.35
2022-12-18T01:29:58.617Z,46.25
2022-12-18T01:30:11.104Z,41.10
2022-12-18T01:30:22.842Z,38.22
2022-12-18T01:30:34.772Z,38.05
2022-12-18T01:30:46.546Z,40.55
2022-12-18T01:30:58.384Z,43.53
2022-12-18T01:31:22.176Z,43.95
2022-12-18T01:31:34.643Z,44.35
2022-12-18T01:31:46.669Z,42.78
2022-12-18T01:31:58.772Z,42.42
2022-12-18T01:32:10.884Z,43.05
2022-12-18T01:32:23.027Z,43.35
2022-12-18T01:32:34.949Z,40.40
2022-12-18T01:32:46.710Z,41.55
2022-12-18T01:32:58.585Z,43.15
2022-12-18T01:33:10.481Z,41.83
2022-12-18T01:33:22.602Z,42.45
2022-12-18T01:33:34.360Z,42.55
2022-12-18T01:33:50.374Z,44.50
2022-12-18T01:34:02.977Z,42.65
2022-12-18T01:34:14.798Z,41.63
2022-12-18T01:34:26.716Z,41.03
2022-12-18T01:34:38.976Z,41.33
2022-12-18T01:34:50.926Z,39.92
2022-12-18T01:35:03.114Z,39.35
2022-12-18T01:35:15.199Z,38.70
2022-12-18T01:35:27.439Z,44.13
2022-12-18T01:35:43.388Z,47.60
2022-12-18T01:35:55.167Z,47.72
2022-12-18T01:36:07.156Z,46.17
2022-12-18T01:36:24.842Z,42.33
2022-12-18T01:36:38.191Z,43.63
2022-12-18T01:36:49.983Z,43.50
2022-12-18T01:37:04.582Z,42.90
2022-12-18T01:37:16.348Z,43.28
2022-12-18T01:37:30.856Z,45.45
2022-12-18T01:37:42.794Z,43.45
2022-12-18T01:38:00.233Z,43.60
2022-12-18T01:38:12.178Z,47.40
2022-12-18T01:38:23.973Z,47.25
2022-12-18T01:38:36.212Z,46.15
2022-12-18T01:38:48.768Z,46.05
2022-12-18T01:39:02.163Z,45.63
2022-12-18T01:39:14.989Z,45.13
2022-12-18T01:39:26.751Z,43.35
2022-12-18T01:39:38.568Z,44.08
2022-12-18T01:39:50.974Z,45.15
2022-12-18T01:40:02.809Z,44.78
2022-12-18T01:40:14.754Z,46.20
2022-12-18T01:40:26.844Z,45.92
2022-12-18T01:40:38.761Z,42.78
2022-12-18T01:40:50.532Z,42.70
2022-12-18T01:41:02.389Z,43.08
2022-12-18T01:41:18.703Z,43.97
2022-12-18T01:41:50.120Z,44.34
2022-12-18T01:42:21.723Z,43.60
2022-12-18T01:42:34.027Z,44.50
2022-12-18T01:42:45.862Z,43.72
2022-12-18T01:42:58.010Z,44.08
2022-12-18T01:43:10.614Z,44.63
2022-12-18T01:43:22.428Z,43.00
2022-12-18T01:43:56.614Z,42.92
2022-12-18T01:45:05.742Z,47.17
2022-12-18T01:45:17.478Z,46.14
2022-12-18T01:45:30.732Z,44.53
2022-12-18T01:45:42.793Z,44.55
2022-12-18T01:45:54.626Z,43.75
2022-12-18T01:46:06.693Z,44.30
2022-12-18T01:46:19.347Z,45.13
2022-12-18T01:46:31.266Z,45.40
2022-12-18T01:46:43.294Z,45.47
2022-12-18T01:46:55.130Z,44.22
2022-12-18T01:47:07.047Z,44.65
2022-12-18T01:47:35.726Z,46.28
2022-12-18T01:47:55.398Z,45.88
2022-12-18T01:48:07.940Z,43.83
2022-12-18T01:48:20.902Z,42.64
2022-12-18T01:48:32.827Z,42.90
2022-12-18T01:48:46.535Z,41.92
2022-12-18T01:49:00.317Z,40.30
2022-12-18T01:49:12.066Z,39.58
2022-12-18T01:49:23.823Z,40.85
2022-12-18T01:49:35.554Z,42.80
2022-12-18T01:49:47.487Z,41.58
2022-12-18T01:50:03.080Z,42.13
2022-12-18T01:50:33.817Z,41.58
2022-12-18T01:50:45.807Z,44.50
2022-12-18T01:50:57.637Z,45.15
2022-12-18T01:51:10.699Z,42.47
2022-12-18T01:51:22.461Z,40.80
2022-12-18T01:51:34.267Z,41.28
2022-12-18T01:51:46.032Z,41.33
2022-12-18T01:51:57.954Z,39.15
2022-12-18T01:52:09.752Z,38.34
2022-12-18T01:52:21.710Z,38.63
2022-12-18T01:52:33.921Z,39.22
2022-12-18T01:52:59.374Z,41.35
2022-12-18T01:53:22.238Z,42.50
2022-12-18T01:53:34.006Z,43.60
2022-12-18T01:53:45.995Z,42.10
2022-12-18T01:53:57.735Z,43.65
2022-12-18T01:54:09.614Z,44.28
2022-12-18T01:54:21.349Z,42.75
2022-12-18T01:54:33.084Z,43.17
2022-12-18T01:54:45.503Z,43.97
2022-12-18T01:54:57.325Z,46.15
2022-12-18T01:55:09.508Z,45.83
2022-12-18T01:55:24.580Z,43.65
2022-12-18T01:55:51.422Z,43.55
2022-12-18T01:56:03.404Z,43.67
2022-12-18T01:56:17.822Z,42.53
2022-12-18T01:56:29.669Z,42.14
2022-12-18T01:56:41.511Z,42.35
2022-12-18T01:56:53.261Z,41.30
2022-12-18T01:57:05.151Z,41.78
2022-12-18T01:57:17.080Z,42.85
2022-12-18T01:57:29.186Z,46.90
2022-12-18T01:57:41.777Z,45.17
2022-12-18T01:57:55.139Z,43.50
2022-12-18T01:58:06.930Z,43.00
2022-12-18T01:58:19.924Z,44.90
2022-12-18T01:59:06.221Z,43.60
2022-12-18T01:59:17.956Z,42.90
2022-12-18T01:59:29.846Z,41.58
2022-12-18T01:59:41.968Z,43.50
2022-12-18T01:59:55.470Z,40.53
2022-12-18T02:00:14.692Z,39.03
2022-12-18T02:00:27.259Z,39.67
2022-12-18T02:00:39.216Z,40.42
2022-12-18T02:00:51.120Z,41.20
2022-12-18T02:01:03.090Z,42.88
2022-12-18T02:01:15.256Z,42.33
2022-12-18T02:01:27.863Z,41.97
2022-12-18T02:01:39.974Z,41.90
2022-12-18T02:01:52.304Z,41.45
2022-12-18T02:02:04.490Z,40.35
2022-12-18T02:02:18.099Z,41.83
2022-12-18T02:02:30.181Z,44.08
2022-12-18T02:02:43.249Z,45.65
2022-12-18T02:02:55.699Z,45.15
2022-12-18T02:03:07.633Z,41.90
2022-12-18T02:03:19.597Z,42.22
2022-12-18T02:03:31.479Z,41.83
2022-12-18T02:03:46.608Z,41.97
2022-12-18T02:04:20.258Z,46.45
2022-12-18T02:04:32.007Z,42.00
2022-12-18T02:04:49.217Z,42.40
2022-12-18T02:05:01.447Z,42.58
2022-12-18T02:05:16.068Z,43.33
2022-12-18T02:05:43.596Z,45.30
2022-12-18T02:06:35.610Z,40.03
2022-12-18T02:06:47.888Z,43.97
2022-12-18T02:07:22.807Z,41.47
2022-12-18T02:08:20.738Z,41.97
2022-12-18T02:08:57.922Z,41.70
2022-12-18T02:09:20.093Z,38.42
2022-12-18T02:10:31.331Z,39.00
2022-12-18T02:11:08.579Z,45.20
2022-12-18T02:11:25.748Z,44.17
2022-12-18T02:11:59.113Z,45.17
2022-12-18T02:12:22.063Z,39.60
2022-12-18T02:12:41.267Z,43.28
2022-12-18T02:12:54.542Z,47.80
2022-12-18T02:13:18.587Z,44.30
2022-12-18T02:14:42.491Z,41.25
2022-12-18T02:15:16.108Z,40.85
2022-12-18T02:15:33.848Z,39.92
2022-12-18T02:15:48.946Z,41.48
2022-12-18T02:16:24.900Z,41.63
2022-12-18T02:17:16.836Z,38.30
2022-12-18T02:17:52.129Z,40.92
2022-12-18T02:18:17.569Z,40.35
2022-12-18T02:18:42.637Z,43.58
2022-12-18T02:19:04.747Z,40.90
2022-12-18T02:44:51.480Z,36.00
2022-12-18T02:45:29.779Z,36.65
2022-12-18T02:45:54.673Z,33.92
2022-12-18T02:47:00.254Z,33.83
2022-12-18T02:47:13.719Z,34.67
2022-12-18T02:47:33.477Z,34.35
2022-12-18T02:49:41.863Z,33.38
2022-12-18T02:49:59.307Z,33.60
2022-12-18T02:50:30.465Z,33.00
2022-12-18T02:51:01.047Z,36.13
2022-12-18T02:51:26.412Z,33.38
2022-12-18T02:51:54.054Z,31.88
2022-12-18T02:52:26.290Z,33.63
2022-12-18T02:53:15.915Z,35.22
2022-12-18T02:54:41.672Z,34.67
2022-12-18T02:55:50.391Z,35.85
2022-12-18T02:56:11.629Z,33.13
2022-12-18T02:56:33.622Z,33.38
2022-12-18T02:56:51.699Z,33.35
2022-12-18T02:57:44.663Z,32.30
2022-12-18T02:57:59.543Z,34.30
2022-12-18T02:58:20.606Z,33.95
2022-12-18T02:58:57.458Z,31.92
2022-12-18T02:59:14.844Z,34.03
2022-12-18T02:59:41.190Z,35.08
2022-12-18T03:00:13.307Z,32.35
2022-12-18T03:00:37.967Z,32.85
2022-12-18T03:01:02.070Z,33.55
2022-12-18T03:01:40.155Z,37.47
2022-12-18T03:01:56.805Z,34.55
2022-12-18T03:02:20.752Z,34.00
2022-12-18T03:02:58.713Z,32.88
2022-12-18T03:03:41.448Z,37.33
2022-12-18T03:04:01.061Z,35.20
2022-12-18T03:04:45.260Z,34.85
2022-12-18T03:05:01.909Z,35.63
2022-12-18T03:05:26.072Z,34.45
2022-12-18T03:06:05.711Z,33.55
2022-12-18T03:06:29.199Z,40.28
2022-12-18T03:06:48.169Z,33.53
2022-12-18T03:07:16.666Z,33.35
2022-12-18T03:07:49.148Z,33.67
2022-12-18T03:08:13.943Z,35.90
2022-12-18T03:08:29.413Z,35.28
2022-12-18T03:08:46.114Z,35.28
2022-12-18T03:09:08.152Z,35.42
2022-12-18T03:09:35.620Z,35.45
2022-12-18T03:09:49.831Z,31.33
2022-12-18T03:10:01.752Z,33.35
2022-12-18T03:10:16.619Z,35.70
2022-12-18T03:10:32.071Z,32.85
2022-12-18T03:11:02.051Z,33.17
2022-12-18T03:11:14.515Z,34.13
2022-12-18T03:11:46.659Z,33.95
2022-12-18T03:12:24.118Z,33.90
2022-12-18T03:12:53.892Z,34.92
2022-12-18T03:13:16.225Z,36.17
2022-12-18T03:13:41.193Z,35.47
2022-12-18T03:13:57.539Z,34.63
2022-12-18T03:14:09.346Z,33.70
2022-12-18T03:14:21.525Z,32.28
2022-12-18T03:14:33.768Z,31.58
2022-12-18T03:14:45.561Z,32.30
2022-12-18T03:15:13.242Z,31.63
2022-12-18T03:15:32.988Z,32.63
2022-12-18T03:15:50.371Z,30.95
2022-12-18T03:16:02.120Z,32.97
2022-12-18T03:16:18.801Z,35.14
2022-12-18T03:16:30.900Z,32.92
2022-12-18T03:16:42.871Z,33.85
2022-12-18T03:16:55.491Z,35.85
2022-12-18T03:17:08.838Z,36.72
2022-12-18T03:17:21.808Z,35.40
2022-12-18T03:17:35.027Z,34.22
2022-12-18T03:17:55.800Z,35.30
2022-12-18T03:18:14.635Z,33.30
2022-12-18T03:18:31.840Z,31.30
2022-12-18T03:18:53.391Z,32.92
2022-12-18T03:19:12.897Z,36.17
2022-12-18T03:19:27.278Z,35.63
2022-12-18T03:19:40.268Z,38.00
2022-12-18T03:19:52.978Z,37.33
2022-12-18T03:20:09.235Z,34.28
2022-12-18T03:20:22.500Z,34.30
2022-12-18T03:20:37.514Z,34.45
2022-12-18T03:20:49.234Z,34.35
2022-12-18T03:21:04.641Z,34.03
2022-12-18T03:21:17.092Z,32.63
2022-12-18T03:21:38.007Z,33.45
2022-12-18T03:21:56.757Z,36.90
2022-12-18T03:22:09.450Z,38.45
2022-12-18T03:22:21.538Z,35.00
2022-12-18T03:22:34.364Z,34.33
2022-12-18T03:22:47.889Z,33.53
2022-12-18T03:23:06.745Z,31.70
2022-12-18T03:23:25.930Z,32.20
2022-12-18T03:23:46.064Z,33.42
2022-12-18T03:23:57.800Z,35.38
2022-12-18T03:24:10.281Z,34.85
2022-12-18T03:24:22.399Z,33.75
2022-12-18T03:24:34.235Z,32.08
2022-12-18T03:24:47.245Z,33.53
2022-12-18T03:24:59.010Z,34.22
2022-12-18T03:25:13.809Z,35.75
2022-12-18T03:25:25.749Z,35.53
2022-12-18T03:25:41.241Z,34.60
2022-12-18T03:25:57.652Z,34.05
2022-12-18T03:26:12.083Z,32.75
2022-12-18T03:26:26.016Z,32.80
2022-12-18T03:26:41.345Z,34.10
2022-12-18T03:27:01.180Z,35.53
2022-12-18T03:27:15.124Z,36.13
2022-12-18T03:27:26.938Z,36.03
2022-12-18T03:27:41.927Z,34.20
2022-12-18T03:27:57.603Z,36.65
2022-12-18T03:28:13.219Z,36.47
2022-12-18T03:28:25.156Z,36.08
2022-12-18T03:28:40.826Z,34.03
2022-12-18T03:29:01.582Z,32.58
2022-12-18T03:29:35.473Z,33.45
2022-12-18T03:30:08.205Z,32.58
2022-12-18T03:30:20.459Z,32.45
2022-12-18T03:30:32.312Z,32.22
2022-12-18T03:30:45.665Z,32.72
2022-12-18T03:30:59.557Z,33.67
2022-12-18T03:31:12.410Z,35.65
2022-12-18T03:31:24.999Z,35.20
2022-12-18T03:31:36.960Z,34.95
2022-12-18T03:31:56.272Z,33.22
2022-12-18T03:32:22.183Z,32.10
2022-12-18T03:32:47.805Z,35.55
2022-12-18T03:33:22.774Z,35.20
2022-12-18T03:33:48.043Z,32.95
2022-12-18T03:34:02.245Z,31.95
2022-12-18T03:34:17.598Z,33.78
2022-12-18T03:34:34.917Z,36.38
2022-12-18T03:34:48.009Z,34.28
2022-12-18T03:35:02.564Z,34.17
2022-12-18T03:35:17.066Z,36.22
2022-12-18T03:35:32.795Z,35.88
2022-12-18T03:35:44.833Z,35.40
2022-12-18T03:35:56.661Z,36.65
2022-12-18T03:36:08.685Z,34.95
2022-12-18T03:36:20.458Z,33.13
2022-12-18T03:36:32.389Z,31.17
2022-12-18T03:36:44.429Z,31.95
2022-12-18T03:36:56.374Z,32.10
2022-12-18T03:37:08.261Z,31.58
2022-12-18T03:37:20.249Z,31.85
2022-12-18T03:37:32.637Z,33.40
2022-12-18T03:37:44.360Z,33.74
2022-12-18T03:37:56.116Z,32.47
2022-12-18T03:38:08.046Z,30.58
2022-12-18T03:38:19.846Z,30.05
2022-12-18T03:38:31.693Z,30.05
2022-12-18T03:38:43.675Z,32.22
2022-12-18T03:38:58.766Z,35.45
2022-12-18T03:39:10.555Z,36.33
2022-12-18T03:39:22.457Z,32.80
2022-12-18T03:39:35.508Z,32.08
2022-12-18T03:39:47.400Z,31.58
2022-12-18T03:39:59.164Z,31.83
2022-12-18T03:40:11.482Z,32.78
2022-12-18T03:40:27.898Z,32.83
2022-12-18T03:40:49.683Z,32.30
2022-12-18T03:41:17.075Z,32.22
2022-12-18T03:41:46.628Z,33.63
2022-12-18T03:42:19.179Z,31.38
2022-12-18T03:42:46.248Z,35.97
2022-12-18T03:43:08.359Z,31.52
2022-12-18T03:43:45.307Z,33.15
2022-12-18T03:44:16.105Z,32.58
2022-12-18T03:45:07.778Z,30.60
2022-12-18T03:45:37.708Z,30.65
2022-12-18T03:45:55.536Z,32.70